createdAt,value
2022-08-11T00:01:27.113Z,47.80
2022-08-11T00:04:00.640Z,47.70
2022-08-11T00:06:31.276Z,47.80
2022-08-11T00:09:00.495Z,47.70
2022-08-11T00:11:41.556Z,47.70
2022-08-11T00:14:24.470Z,47.70
2022-08-11T00:17:09.903Z,47.70
2022-08-11T00:20:14.208Z,47.70
2022-08-11T00:22:33.011Z,48.00
2022-08-11T00:25:10.193Z,48.10
2022-08-11T00:27:39.904Z,48.00
2022-08-11T00:30:12.147Z,48.50
2022-08-11T00:32:42.733Z,48.20
2022-08-11T00:35:51.318Z,48.10
2022-08-11T00:38:02.906Z,48.30
2022-08-11T00:40:58.813Z,48.40
2022-08-11T00:44:17.522Z,48.40
2022-08-11T00:46:56.915Z,48.30
2022-08-11T00:49:39.475Z,48.50
2022-08-11T00:52:31.504Z,48.50
2022-08-11T00:55:17.119Z,48.70
2022-08-11T00:58:22.594Z,49.00
2022-08-11T01:01:17.712Z,48.90
2022-08-11T01:04:09.413Z,49.00
2022-08-11T01:07:14.142Z,49.10
2022-08-11T01:10:28.596Z,49.10
2022-08-11T01:13:34.536Z,49.10
2022-08-11T01:16:35.802Z,49.10
2022-08-11T01:20:44.889Z,49.10
2022-08-11T01:22:49.137Z,49.20
2022-08-11T01:25:57.696Z,49.00
2022-08-11T01:28:27.867Z,49.30
2022-08-11T01:31:15.797Z,49.50
2022-08-11T01:33:59.585Z,49.60
2022-08-11T01:36:53.547Z,49.60
2022-08-11T01:40:03.529Z,49.50
2022-08-11T01:43:23.734Z,49.60
2022-08-11T01:46:21.357Z,49.60
2022-08-11T01:48:48.403Z,49.70
2022-08-11T01:52:13.197Z,49.80
2022-08-11T01:55:02.252Z,50.00
2022-08-11T01:57:38.630Z,49.70
2022-08-11T02:00:19.951Z,49.70
2022-08-11T02:02:58.539Z,49.80
2022-08-11T02:05:46.095Z,50.00
2022-08-11T02:08:35.849Z,50.00
2022-08-11T02:11:38.279Z,50.20
2022-08-11T02:14:26.614Z,50.30
2022-08-11T02:17:19.093Z,50.30
2022-08-11T02:20:26.096Z,50.40
2022-08-11T02:24:07.197Z,50.60
2022-08-11T02:26:21.257Z,50.60
2022-08-11T02:28:58.565Z,50.60
2022-08-11T02:32:24.222Z,50.70
2022-08-11T02:34:59.827Z,50.80
2022-08-11T02:37:34.721Z,50.70
2022-08-11T02:40:45.998Z,50.60
2022-08-11T02:43:47.932Z,50.90
2022-08-11T02:46:31.760Z,50.60
2022-08-11T02:49:27.085Z,50.80
2022-08-11T02:52:08.726Z,50.90
2022-08-11T02:54:54.801Z,50.90
2022-08-11T02:57:33.943Z,50.90
2022-08-11T03:00:13.826Z,51.00
2022-08-11T03:02:49.040Z,51.00
2022-08-11T03:05:31.363Z,51.00
2022-08-11T03:08:19.515Z,51.00
2022-08-11T03:11:36.436Z,51.30
2022-08-11T03:14:45.458Z,51.30
2022-08-11T03:17:44.126Z,51.50
2022-08-11T03:20:21.611Z,51.40
2022-08-11T03:23:03.553Z,51.70
2022-08-11T03:25:54.835Z,51.50
2022-08-11T03:28:34.062Z,51.90
2022-08-11T03:31:36.695Z,51.50
2022-08-11T03:34:11.378Z,51.90
2022-08-11T03:36:59.305Z,52.00
2022-08-11T03:39:58.024Z,52.20
2022-08-11T03:42:33.271Z,52.20
2022-08-11T03:45:12.640Z,52.10
2022-08-11T03:47:52.434Z,52.30
2022-08-11T03:50:31.607Z,52.20
2022-08-11T03:53:35.452Z,52.40
2022-08-11T03:56:14.768Z,52.30
2022-08-11T03:58:46.515Z,52.30
2022-08-11T04:01:34.528Z,52.40
2022-08-11T04:04:31.575Z,52.60
2022-08-11T04:07:20.858Z,52.60
2022-08-11T04:10:03.198Z,52.40
2022-08-11T04:12:42.050Z,52.40
2022-08-11T04:15:42.764Z,52.50
2022-08-11T04:18:35.151Z,52.40
2022-08-11T04:21:05.110Z,52.40
2022-08-11T04:24:36.771Z,52.50
2022-08-11T04:27:01.954Z,52.50
2022-08-11T04:30:03.865Z,52.70
2022-08-11T04:32:56.514Z,52.70
2022-08-11T04:35:51.500Z,52.70
2022-08-11T04:38:44.832Z,52.60
2022-08-11T04:41:24.007Z,52.70
2022-08-11T04:44:13.935Z,52.90
2022-08-11T04:48:03.853Z,52.80
2022-08-11T04:51:16.365Z,53.00
2022-08-11T04:54:28.749Z,52.90
2022-08-11T04:57:24.734Z,53.00
2022-08-11T05:00:16.288Z,53.20
2022-08-11T05:03:10.561Z,53.10
2022-08-11T05:05:57.150Z,53.20
2022-08-11T05:09:02.554Z,53.10
2022-08-11T05:11:39.039Z,53.40
2022-08-11T05:14:57.545Z,53.20
2022-08-11T05:18:13.879Z,53.10
2022-08-11T05:21:08.477Z,53.30
2022-08-11T05:24:05.042Z,53.10
2022-08-11T05:27:12.823Z,53.10
2022-08-11T05:30:11.985Z,53.30
2022-08-11T05:33:02.290Z,53.10
2022-08-11T05:36:02.267Z,53.30
2022-08-11T05:38:52.217Z,53.00
2022-08-11T05:41:40.567Z,52.40
2022-08-11T05:44:27.467Z,52.20
2022-08-11T05:47:14.076Z,52.00
2022-08-11T05:50:00.278Z,51.80
2022-08-11T05:52:55.571Z,51.60
2022-08-11T05:56:02.349Z,51.80
2022-08-11T05:58:42.650Z,50.90
2022-08-11T06:01:13.246Z,50.60
2022-08-11T06:04:03.569Z,50.60
2022-08-11T06:06:31.556Z,50.30
2022-08-11T06:08:59.959Z,49.90
2022-08-11T06:11:44.345Z,50.00
2022-08-11T06:14:15.657Z,49.70
2022-08-11T06:16:47.789Z,49.60
2022-08-11T06:19:16.268Z,49.30
2022-08-11T06:21:48.129Z,48.80
2022-08-11T06:24:17.946Z,48.50
2022-08-11T06:29:55.483Z,48.80
2022-08-11T06:32:33.067Z,48.40
2022-08-11T06:35:12.178Z,48.40
2022-08-11T06:37:48.716Z,48.50
2022-08-11T06:40:27.728Z,48.90
2022-08-11T06:43:21.399Z,48.40
2022-08-11T06:46:03.401Z,48.20
2022-08-11T06:48:33.681Z,48.10
2022-08-11T06:51:13.336Z,48.20
2022-08-11T06:54:04.422Z,48.20
2022-08-11T06:57:27.875Z,47.90
2022-08-11T07:00:01.879Z,48.00
2022-08-11T07:02:34.923Z,47.50
2022-08-11T07:05:04.236Z,47.70
2022-08-11T07:08:34.139Z,47.50
2022-08-11T07:12:08.537Z,47.70
2022-08-11T07:14:59.895Z,47.30
2022-08-11T07:17:30.637Z,47.00
2022-08-11T07:20:23.630Z,47.00
2022-08-11T07:23:16.954Z,46.50
2022-08-11T07:26:05.787Z,47.20
2022-08-11T07:28:56.359Z,47.70
2022-08-11T07:31:36.608Z,47.40
2022-08-11T07:34:30.643Z,47.30
2022-08-11T07:37:01.225Z,47.30
2022-08-11T07:39:33.232Z,47.30
2022-08-11T07:42:07.123Z,47.20
2022-08-11T07:44:59.579Z,47.40
2022-08-11T07:47:46.185Z,47.10
2022-08-11T07:50:32.710Z,47.10
2022-08-11T07:53:01.497Z,47.00
2022-08-11T07:55:50.873Z,47.20
2022-08-11T07:58:45.811Z,47.10
2022-08-11T08:01:40.778Z,46.70
2022-08-11T08:04:30.063Z,46.90
2022-08-11T08:07:17.284Z,46.10
2022-08-11T08:10:03.242Z,46.60
2022-08-11T08:12:49.800Z,46.40
2022-08-11T08:15:38.738Z,46.10
2022-08-11T08:18:20.964Z,45.70
2022-08-11T08:21:12.065Z,45.90
2022-08-11T08:23:42.195Z,45.40
2022-08-11T08:26:31.923Z,45.00
2022-08-11T08:29:21.215Z,44.10
2022-08-11T08:31:51.220Z,44.70
2022-08-11T08:34:20.216Z,43.40
2022-08-11T08:36:50.583Z,43.80
2022-08-11T08:39:22.429Z,44.40
2022-08-11T08:41:56.201Z,43.10
2022-08-11T08:44:42.044Z,43.00
2022-08-11T08:47:42.492Z,42.60
2022-08-11T08:50:10.585Z,43.10
2022-08-11T08:52:50.998Z,43.20
2022-08-11T08:55:20.363Z,43.60
2022-08-11T08:57:50.330Z,43.80
2022-08-11T09:00:23.157Z,43.60
2022-08-11T09:02:52.261Z,43.70
2022-08-11T09:05:20.087Z,43.90
2022-08-11T09:07:53.312Z,44.10
2022-08-11T09:10:21.592Z,44.30
2022-08-11T09:12:50.453Z,44.40
2022-08-11T09:15:20.176Z,44.60
2022-08-11T09:17:51.660Z,44.50
2022-08-11T09:20:25.492Z,44.40
2022-08-11T09:26:30.254Z,43.90
2022-08-11T09:29:00.642Z,43.40
2022-08-11T09:31:37.243Z,42.70
2022-08-11T09:34:10.290Z,41.30
2022-08-11T09:36:58.379Z,41.20
2022-08-11T09:39:46.882Z,42.20
2022-08-11T09:42:16.426Z,42.00
2022-08-11T09:44:51.014Z,42.10
2022-08-11T09:47:30.130Z,41.20
2022-08-11T09:50:00.827Z,42.20
2022-08-11T09:52:57.170Z,41.70
2022-08-11T09:55:28.775Z,42.10
2022-08-11T09:58:41.574Z,42.20
2022-08-11T10:01:08.042Z,42.10
2022-08-11T10:03:40.515Z,42.10
2022-08-11T10:06:33.296Z,41.90
2022-08-11T10:09:06.927Z,41.60
2022-08-11T10:11:38.421Z,41.80
2022-08-11T10:14:31.231Z,41.00
2022-08-11T10:17:06.670Z,41.70
2022-08-11T10:19:39.153Z,41.50
2022-08-11T10:22:27.585Z,41.60
2022-08-11T10:25:19.950Z,41.10
2022-08-11T10:28:30.853Z,40.90
2022-08-11T10:31:04.821Z,41.40
2022-08-11T10:33:59.398Z,41.30
2022-08-11T10:36:29.286Z,41.10
2022-08-11T10:38:58.579Z,41.20
2022-08-11T10:42:08.719Z,40.60
2022-08-11T10:44:38.709Z,41.00
2022-08-11T10:47:25.472Z,40.60
2022-08-11T10:50:14.262Z,40.50
2022-08-11T10:53:00.394Z,40.70
2022-08-11T10:55:49.514Z,40.10
2022-08-11T10:58:36.419Z,40.20
2022-08-11T11:01:05.511Z,39.50
2022-08-11T11:03:37.039Z,38.80
2022-08-11T11:06:45.528Z,38.90
2022-08-11T11:09:20.018Z,39.10
2022-08-11T11:12:12.557Z,38.80
2022-08-11T11:15:00.916Z,39.30
2022-08-11T11:17:56.507Z,39.00
2022-08-11T11:20:37.650Z,38.70
2022-08-11T11:23:32.880Z,39.40
2022-08-11T11:26:27.102Z,39.10
2022-08-11T11:29:17.163Z,38.80
2022-08-11T11:32:08.480Z,37.50
2022-08-11T11:34:53.448Z,38.00
2022-08-11T11:37:23.946Z,37.80
2022-08-11T11:39:54.283Z,37.30
2022-08-11T11:42:27.630Z,36.50
2022-08-11T11:44:57.823Z,36.70
2022-08-11T11:47:31.443Z,35.80
2022-08-11T11:49:59.908Z,36.70
2022-08-11T11:52:27.696Z,37.10
2022-08-11T11:55:00.491Z,37.00
2022-08-11T11:57:59.150Z,36.50
2022-08-11T12:00:48.017Z,35.60
2022-08-11T12:03:16.407Z,36.00
2022-08-11T12:05:44.338Z,35.60
2022-08-11T12:08:23.373Z,34.80
2022-08-11T12:11:22.200Z,35.00
2022-08-11T12:13:52.206Z,34.90
2022-08-11T12:16:34.114Z,35.00
2022-08-11T12:19:06.795Z,34.80
2022-08-11T12:21:36.762Z,34.70
2022-08-11T12:24:29.235Z,34.90
2022-08-11T12:27:18.258Z,35.10
2022-08-11T12:29:55.306Z,34.30
2022-08-11T12:32:31.784Z,34.00
2022-08-11T12:35:00.191Z,34.20
2022-08-11T12:37:31.970Z,34.30
2022-08-11T12:40:43.427Z,34.90
2022-08-11T12:43:38.005Z,34.80
2022-08-11T12:46:09.220Z,33.60
2022-08-11T12:49:02.342Z,33.40
2022-08-11T12:52:11.081Z,33.10
2022-08-11T12:55:03.055Z,33.30
2022-08-11T12:57:57.439Z,33.60
2022-08-11T13:00:45.961Z,33.50
2022-08-11T13:03:33.292Z,33.40
2022-08-11T13:06:04.149Z,32.60
2022-08-11T13:08:35.648Z,32.60
2022-08-11T13:11:22.529Z,32.10
2022-08-11T13:13:57.155Z,30.20
2022-08-11T13:16:56.936Z,30.90
2022-08-11T13:19:24.342Z,29.50
2022-08-11T13:21:53.038Z,30.50
2022-08-11T13:24:21.864Z,29.70
2022-08-11T13:26:50.574Z,30.00
2022-08-11T13:29:20.214Z,30.10
2022-08-11T13:31:48.344Z,30.30
2022-08-11T13:34:17.818Z,30.50
2022-08-11T13:36:46.124Z,30.30
2022-08-11T13:39:14.262Z,30.50
2022-08-11T13:41:45.183Z,30.50
2022-08-11T13:44:21.612Z,30.80
2022-08-11T13:46:53.009Z,30.50
2022-08-11T13:49:27.867Z,30.60
2022-08-11T13:51:56.186Z,31.00
2022-08-11T13:54:27.531Z,30.40
2022-08-11T13:57:00.436Z,30.90
2022-08-11T13:59:43.693Z,31.00
2022-08-11T14:02:29.279Z,30.00
2022-08-11T14:05:22.925Z,30.20
2022-08-11T14:07:53.355Z,30.50
2022-08-11T14:10:27.079Z,30.70
2022-08-11T14:13:18.072Z,30.80
2022-08-11T14:15:46.997Z,30.60
2022-08-11T14:18:26.823Z,31.20
2022-08-11T14:21:15.516Z,31.20
2022-08-11T14:23:55.109Z,30.60
2022-08-11T14:26:23.556Z,30.30
2022-08-11T14:29:06.077Z,30.10
2022-08-11T14:31:36.001Z,30.30
2022-08-11T14:34:14.906Z,30.40
2022-08-11T14:36:47.509Z,30.40
2022-08-11T14:39:22.923Z,30.70
2022-08-11T14:42:22.932Z,30.80
2022-08-11T14:45:16.225Z,31.10
2022-08-11T14:47:53.681Z,31.10
2022-08-11T14:50:26.954Z,30.70
2022-08-11T14:52:59.224Z,30.90
2022-08-11T14:55:51.851Z,30.90
2022-08-11T14:58:24.449Z,31.00
2022-08-11T15:01:01.493Z,31.30
2022-08-11T15:03:33.549Z,31.20
2022-08-11T15:06:02.529Z,31.60
2022-08-11T15:08:52.213Z,31.80
2022-08-11T15:11:40.544Z,32.60
2022-08-11T15:14:09.981Z,32.50
2022-08-11T15:16:59.895Z,32.70
2022-08-11T15:19:40.313Z,32.70
2022-08-11T15:22:29.331Z,32.40
2022-08-11T15:24:59.703Z,32.70
2022-08-11T15:27:48.463Z,32.60
2022-08-11T15:30:35.042Z,32.70
2022-08-11T15:33:26.241Z,32.70
2022-08-11T15:36:14.609Z,32.70
2022-08-11T15:38:55.480Z,32.80
2022-08-11T15:41:58.377Z,32.80
2022-08-11T15:45:02.643Z,32.90
2022-08-11T15:47:38.478Z,33.10
2022-08-11T15:50:14.909Z,33.10
2022-08-11T15:52:59.248Z,33.20
2022-08-11T15:55:32.258Z,33.20
2022-08-11T15:58:21.938Z,33.20
2022-08-11T16:01:09.980Z,33.40
2022-08-11T16:04:12.654Z,33.40
2022-08-11T16:07:01.089Z,33.60
2022-08-11T16:09:51.997Z,33.70
2022-08-11T16:12:25.879Z,33.90
2022-08-11T16:15:15.037Z,34.20
2022-08-11T16:17:52.888Z,34.20
2022-08-11T16:20:24.576Z,34.30
2022-08-11T16:23:01.535Z,34.30
2022-08-11T16:27:06.117Z,34.60
2022-08-11T16:28:22.257Z,34.70
2022-08-11T16:30:50.818Z,34.60
2022-08-11T16:33:47.947Z,34.50
2022-08-11T16:36:30.758Z,34.40
2022-08-11T16:39:00.260Z,34.00
2022-08-11T16:41:50.062Z,34.10
2022-08-11T16:44:38.403Z,34.20
2022-08-11T16:47:17.074Z,34.50
2022-08-11T16:49:53.904Z,34.70
2022-08-11T16:52:23.233Z,34.60
2022-08-11T16:54:52.929Z,34.90
2022-08-11T16:57:44.321Z,34.40
2022-08-11T17:00:15.699Z,33.80
2022-08-11T17:03:05.720Z,33.90
2022-08-11T17:05:57.748Z,34.30
2022-08-11T17:08:57.504Z,34.40
2022-08-11T17:11:49.874Z,34.60
2022-08-11T17:14:35.521Z,34.70
2022-08-11T17:17:14.808Z,34.90
2022-08-11T17:20:41.721Z,35.30
2022-08-11T17:22:59.831Z,35.20
2022-08-11T17:25:32.343Z,35.50
2022-08-11T17:28:21.416Z,35.50
2022-08-11T17:31:22.343Z,35.70
2022-08-11T17:34:11.246Z,35.70
2022-08-11T17:36:44.517Z,35.80
2022-08-11T17:39:14.519Z,35.90
2022-08-11T17:42:02.931Z,36.20
2022-08-11T17:44:50.149Z,36.20
2022-08-11T17:47:38.599Z,36.30
2022-08-11T17:50:17.869Z,36.30
2022-08-11T17:53:05.822Z,36.60
2022-08-11T17:55:53.990Z,37.10
2022-08-11T17:58:40.736Z,36.90
2022-08-11T18:01:10.976Z,37.30
2022-08-11T18:03:41.163Z,37.30
2022-08-11T18:06:14.021Z,37.60
2022-08-11T18:09:04.783Z,37.70
2022-08-11T18:12:10.681Z,37.70
2022-08-11T18:15:00.528Z,38.00
2022-08-11T18:17:46.550Z,38.10
2022-08-11T18:20:33.014Z,38.50
2022-08-11T18:23:21.736Z,38.50
2022-08-11T18:26:28.843Z,38.40
2022-08-11T18:29:16.065Z,38.40
2022-08-11T18:32:09.320Z,38.60
2022-08-11T18:35:00.197Z,38.60
2022-08-11T18:37:51.888Z,38.60
2022-08-11T18:40:41.975Z,38.80
2022-08-11T18:43:30.350Z,38.80
2022-08-11T18:46:21.315Z,39.30
2022-08-11T18:49:15.869Z,39.30
2022-08-11T18:52:06.391Z,39.60
2022-08-11T18:54:57.674Z,40.40
2022-08-11T18:57:54.096Z,40.30
2022-08-11T19:00:44.620Z,40.60
2022-08-11T19:03:43.238Z,40.50
2022-08-11T19:06:40.218Z,40.40
2022-08-11T19:09:30.731Z,40.60
2022-08-11T19:12:17.717Z,41.10
2022-08-11T19:15:05.008Z,41.00
2022-08-11T19:17:53.105Z,41.40
2022-08-11T19:20:42.038Z,41.30
2022-08-11T19:23:33.441Z,41.20
2022-08-11T19:26:21.478Z,41.30
2022-08-11T19:29:09.230Z,41.20
2022-08-11T19:32:17.029Z,41.70
2022-08-11T19:35:04.570Z,41.50
2022-08-11T19:37:51.520Z,42.20
2022-08-11T19:40:38.490Z,41.80
2022-08-11T19:43:26.192Z,41.90
2022-08-11T19:46:19.065Z,42.30
2022-08-11T19:49:09.174Z,42.40
2022-08-11T19:51:56.244Z,42.60
2022-08-11T19:54:48.308Z,43.10
2022-08-11T19:57:39.594Z,43.00
2022-08-11T20:00:33.147Z,42.80
2022-08-11T20:03:20.616Z,42.80
2022-08-11T20:06:11.331Z,42.80
2022-08-11T20:09:01.639Z,43.30
2022-08-11T20:11:54.292Z,43.10
2022-08-11T20:14:45.193Z,43.20
2022-08-11T20:17:32.428Z,43.30
2022-08-11T20:20:23.435Z,43.60
2022-08-11T20:23:12.889Z,43.50
2022-08-11T20:26:14.054Z,44.00
2022-08-11T20:29:09.169Z,43.90
2022-08-11T20:31:57.712Z,44.30
2022-08-11T20:34:43.595Z,44.00
2022-08-11T20:37:30.782Z,44.10
2022-08-11T20:40:23.760Z,44.80
2022-08-11T20:44:05.036Z,44.60
2022-08-11T20:46:16.720Z,44.60
2022-08-11T20:49:03.843Z,44.90
2022-08-11T20:51:51.161Z,44.80
2022-08-11T20:54:43.878Z,44.60
2022-08-11T20:57:58.912Z,44.60
2022-08-11T21:00:44.061Z,44.60
2022-08-11T21:03:35.541Z,44.80
2022-08-11T21:06:31.530Z,45.30
2022-08-11T21:09:23.985Z,45.10
2022-08-11T21:12:30.435Z,45.50
2022-08-11T21:15:38.931Z,45.10
2022-08-11T21:18:29.562Z,45.90
2022-08-11T21:21:19.464Z,45.30
2022-08-11T21:24:09.218Z,45.40
2022-08-11T21:27:03.401Z,45.30
2022-08-11T21:29:52.861Z,45.30
2022-08-11T21:32:40.995Z,45.50
2022-08-11T21:35:30.158Z,45.30
2022-08-11T21:38:18.583Z,45.50
2022-08-11T21:41:07.079Z,45.60
2022-08-11T21:43:54.244Z,45.80
2022-08-11T21:46:41.827Z,45.60
2022-08-11T21:49:29.872Z,45.70
2022-08-11T21:52:15.927Z,45.60
2022-08-11T21:55:03.675Z,45.80
2022-08-11T21:57:50.722Z,45.60
2022-08-11T22:00:36.543Z,45.50
2022-08-11T22:03:24.197Z,45.60
2022-08-11T22:06:11.106Z,45.60
2022-08-11T22:08:57.158Z,45.80
2022-08-11T22:11:43.382Z,45.90
2022-08-11T22:14:29.232Z,45.90
2022-08-11T22:17:14.848Z,46.20
2022-08-11T22:20:01.101Z,46.50
2022-08-11T22:22:49.088Z,46.60
2022-08-11T22:25:53.792Z,46.60
2022-08-11T22:28:41.014Z,46.60
2022-08-11T22:31:29.716Z,47.10
2022-08-11T22:34:15.660Z,47.10
2022-08-11T22:37:03.728Z,46.90
2022-08-11T22:39:59.666Z,47.10
2022-08-11T22:42:49.618Z,47.40
2022-08-11T22:45:35.846Z,47.50
2022-08-11T22:48:23.754Z,48.10
2022-08-11T22:51:11.097Z,48.10
2022-08-11T22:53:59.346Z,48.20
2022-08-11T22:56:46.924Z,48.80
2022-08-11T22:59:36.318Z,48.70
2022-08-11T23:02:24.187Z,49.10
2022-08-11T23:05:10.895Z,48.80
2022-08-11T23:07:57.482Z,48.80
2022-08-11T23:10:45.284Z,49.00
2022-08-11T23:13:32.226Z,49.30
2022-08-11T23:16:19.031Z,49.30
2022-08-11T23:19:05.732Z,49.30
2022-08-11T23:21:53.379Z,49.60
2022-08-11T23:24:40.248Z,50.20
2022-08-11T23:27:28.208Z,50.20
2022-08-11T23:30:17.163Z,50.20
2022-08-11T23:33:10.167Z,50.20
2022-08-11T23:36:07.428Z,50.20
2022-08-11T23:38:53.676Z,50.70
2022-08-11T23:41:40.733Z,50.30
2022-08-11T23:44:27.612Z,50.00
2022-08-11T23:47:17.566Z,50.30
2022-08-11T23:50:05.107Z,50.20
2022-08-11T23:52:53.208Z,50.10
2022-08-11T23:55:40.112Z,50.30
2022-08-11T23:58:27.029Z,50.60
